createdAt,value
2023-05-14T00:00:38.354Z,11.72
2023-05-14T00:01:38.405Z,11.72
2023-05-14T00:02:38.392Z,11.72
2023-05-14T00:03:38.376Z,11.64
2023-05-14T00:04:38.470Z,11.71
2023-05-14T00:05:38.324Z,11.68
2023-05-14T00:06:38.366Z,11.65
2023-05-14T00:07:38.283Z,11.72
2023-05-14T00:08:38.275Z,11.61
2023-05-14T00:09:38.267Z,11.62
2023-05-14T00:10:38.276Z,11.64
2023-05-14T00:11:38.308Z,11.61
2023-05-14T00:12:38.247Z,11.53
2023-05-14T00:13:38.227Z,11.44
2023-05-14T00:14:39.219Z,11.47
2023-05-14T00:15:38.343Z,11.36
2023-05-14T00:16:38.274Z,11.21
2023-05-14T00:17:38.253Z,11.10
2023-05-14T00:18:38.188Z,11.07
2023-05-14T00:19:38.197Z,11.11
2023-05-14T00:20:38.187Z,10.99
2023-05-14T00:21:38.149Z,11.01
2023-05-14T00:22:38.148Z,10.96
2023-05-14T00:23:38.121Z,10.84
2023-05-14T00:24:38.136Z,10.98
2023-05-14T00:25:38.151Z,10.95
2023-05-14T00:26:38.102Z,10.96
2023-05-14T00:27:38.078Z,10.86
2023-05-14T00:28:38.089Z,10.80
2023-05-14T00:29:38.094Z,10.89
2023-05-14T00:30:38.077Z,10.81
2023-05-14T00:31:38.130Z,10.80
2023-05-14T00:32:38.109Z,10.76
2023-05-14T00:33:38.041Z,10.77
2023-05-14T00:34:38.061Z,10.76
2023-05-14T00:35:38.037Z,10.77
2023-05-14T00:36:38.009Z,10.70
2023-05-14T00:37:37.992Z,10.73
2023-05-14T00:38:38.025Z,10.70
2023-05-14T00:39:37.994Z,10.71
2023-05-14T00:40:37.974Z,10.70
2023-05-14T00:41:37.945Z,10.65
2023-05-14T00:42:37.938Z,10.77
2023-05-14T00:43:37.953Z,10.59
2023-05-14T00:44:37.946Z,10.52
2023-05-14T00:45:37.902Z,10.39
2023-05-14T00:46:37.932Z,10.32
2023-05-14T00:47:37.973Z,10.21
2023-05-14T00:48:37.935Z,10.19
2023-05-14T00:49:37.879Z,10.21
2023-05-14T00:50:37.872Z,10.12
2023-05-14T00:51:37.851Z,10.04
2023-05-14T00:52:37.877Z,9.89
2023-05-14T00:53:37.950Z,9.94
2023-05-14T00:54:37.829Z,9.88
2023-05-14T00:55:37.816Z,9.86
2023-05-14T00:56:37.809Z,9.85
2023-05-14T00:57:37.820Z,9.81
2023-05-14T00:58:37.777Z,9.71
2023-05-14T00:59:37.774Z,9.85
2023-05-14T01:00:37.793Z,9.79
2023-05-14T01:01:37.752Z,9.81
2023-05-14T01:02:37.852Z,9.96
2023-05-14T01:03:37.868Z,9.89
2023-05-14T01:04:37.729Z,9.97
2023-05-14T01:05:37.729Z,9.91
2023-05-14T01:06:37.704Z,10.00
2023-05-14T01:07:37.734Z,10.09
2023-05-14T01:08:37.680Z,10.04
2023-05-14T01:09:37.677Z,9.99
2023-05-14T01:10:37.658Z,10.04
2023-05-14T01:11:37.681Z,10.04
2023-05-14T01:12:37.648Z,10.10
2023-05-14T01:13:37.635Z,10.04
2023-05-14T01:14:37.620Z,10.06
2023-05-14T01:15:37.616Z,10.03
2023-05-14T01:16:37.666Z,10.14
2023-05-14T01:17:37.654Z,10.07
2023-05-14T01:18:37.676Z,10.04
2023-05-14T01:19:37.562Z,10.12
2023-05-14T01:20:37.582Z,10.09
2023-05-14T01:21:37.594Z,10.07
2023-05-14T01:22:37.542Z,10.15
2023-05-14T01:23:37.537Z,10.09
2023-05-14T01:24:37.538Z,10.19
2023-05-14T01:25:37.545Z,10.15
2023-05-14T01:26:37.538Z,10.17
2023-05-14T01:27:37.507Z,10.22
2023-05-14T01:28:37.488Z,10.18
2023-05-14T01:29:37.477Z,10.19
2023-05-14T01:30:37.506Z,10.36
2023-05-14T01:31:37.494Z,10.34
2023-05-14T01:32:37.492Z,10.30
2023-05-14T01:33:37.447Z,10.30
2023-05-14T01:34:37.439Z,10.30
2023-05-14T01:35:37.466Z,10.30
2023-05-14T01:36:38.414Z,10.30
2023-05-14T01:37:37.422Z,10.33
2023-05-14T01:38:37.393Z,10.33
2023-05-14T01:39:37.403Z,10.32
2023-05-14T01:40:37.381Z,10.26
2023-05-14T01:41:37.362Z,10.36
2023-05-14T01:42:37.351Z,10.34
2023-05-14T01:43:37.406Z,10.30
2023-05-14T01:44:37.347Z,10.26
2023-05-14T01:45:37.315Z,10.24
2023-05-14T01:46:38.388Z,10.26
2023-05-14T01:47:37.321Z,10.25
2023-05-14T01:48:37.346Z,10.22
2023-05-14T01:49:37.305Z,10.21
2023-05-14T01:50:37.269Z,10.25
2023-05-14T01:51:37.261Z,10.12
2023-05-14T01:52:37.264Z,10.10
2023-05-14T01:53:37.278Z,10.12
2023-05-14T01:54:38.230Z,10.00
2023-05-14T01:55:37.220Z,10.15
2023-05-14T01:56:37.229Z,10.09
2023-05-14T01:57:37.199Z,10.01
2023-05-14T01:58:37.213Z,10.01
2023-05-14T01:59:37.183Z,10.06
2023-05-14T02:00:37.189Z,10.01
2023-05-14T02:01:37.198Z,9.97
2023-05-14T02:02:37.265Z,10.12
2023-05-14T02:03:37.170Z,10.14
2023-05-14T02:04:37.143Z,10.14
2023-05-14T02:05:37.125Z,10.14
2023-05-14T02:06:37.147Z,10.06
2023-05-14T02:07:37.144Z,10.07
2023-05-14T02:08:37.100Z,10.15
2023-05-14T02:09:37.102Z,10.17
2023-05-14T02:10:37.088Z,10.22
2023-05-14T02:11:37.090Z,10.18
2023-05-14T02:12:37.075Z,10.25
2023-05-14T02:13:37.053Z,10.19
2023-05-14T02:14:37.055Z,10.09
2023-05-14T02:15:37.055Z,10.12
2023-05-14T02:16:37.015Z,10.17
2023-05-14T02:17:38.079Z,10.10
2023-05-14T02:18:37.039Z,10.21
2023-05-14T02:19:37.009Z,10.07
2023-05-14T02:20:36.975Z,10.14
2023-05-14T02:21:36.966Z,10.10
2023-05-14T02:22:36.965Z,10.15
2023-05-14T02:23:41.567Z,10.07
2023-05-14T02:24:38.976Z,10.03
2023-05-14T02:25:36.946Z,10.09
2023-05-14T02:26:36.951Z,10.03
2023-05-14T02:27:36.954Z,10.06
2023-05-14T02:28:36.909Z,10.06
2023-05-14T02:29:36.910Z,10.09
2023-05-14T02:30:36.897Z,10.01
2023-05-14T02:31:36.929Z,9.97
2023-05-14T02:32:36.943Z,9.99
2023-05-14T02:33:37.106Z,9.88
2023-05-14T02:34:36.845Z,9.79
2023-05-14T02:35:36.858Z,9.85
2023-05-14T02:36:36.820Z,9.75
2023-05-14T02:37:36.819Z,9.70
2023-05-14T02:38:36.810Z,9.73
2023-05-14T02:39:36.801Z,9.75
2023-05-14T02:40:36.797Z,9.68
2023-05-14T02:41:36.765Z,9.76
2023-05-14T02:42:36.768Z,9.60
2023-05-14T02:43:36.752Z,9.67
2023-05-14T02:44:36.779Z,9.68
2023-05-14T02:45:36.761Z,9.64
2023-05-14T02:46:36.787Z,9.68
2023-05-14T02:47:38.161Z,9.71
2023-05-14T02:48:37.714Z,9.75
2023-05-14T02:49:36.715Z,9.76
2023-05-14T02:50:36.694Z,9.68
2023-05-14T02:51:36.690Z,9.71
2023-05-14T02:52:36.706Z,9.68
2023-05-14T02:53:36.651Z,9.67
2023-05-14T02:54:37.683Z,9.66
2023-05-14T02:55:36.653Z,9.67
2023-05-14T02:56:36.642Z,9.71
2023-05-14T02:57:36.647Z,9.75
2023-05-14T02:58:36.636Z,9.76
2023-05-14T02:59:36.625Z,9.81
2023-05-14T03:00:36.595Z,9.83
2023-05-14T03:01:36.591Z,9.79
2023-05-14T03:02:36.653Z,9.81
2023-05-14T03:03:36.609Z,9.78
2023-05-14T03:04:36.558Z,9.81
2023-05-14T03:05:36.545Z,9.78
2023-05-14T03:06:36.538Z,9.73
2023-05-14T03:07:36.591Z,9.88
2023-05-14T03:08:36.540Z,9.85
2023-05-14T03:09:38.312Z,9.79
2023-05-14T03:10:37.493Z,9.83
2023-05-14T03:11:36.486Z,9.86
2023-05-14T03:12:36.546Z,9.97
2023-05-14T03:13:36.472Z,9.97
2023-05-14T03:14:36.449Z,10.00
2023-05-14T03:15:36.462Z,9.94
2023-05-14T03:16:36.482Z,9.99
2023-05-14T03:17:36.469Z,10.14
2023-05-14T03:18:36.451Z,10.03
2023-05-14T03:19:36.409Z,10.07
2023-05-14T03:20:36.397Z,10.10
2023-05-14T03:21:36.396Z,10.12
2023-05-14T03:22:36.391Z,10.04
2023-05-14T03:23:36.375Z,10.00
2023-05-14T03:24:36.355Z,9.99
2023-05-14T03:25:36.449Z,9.96
2023-05-14T03:26:36.356Z,10.07
2023-05-14T03:27:36.350Z,10.06
2023-05-14T03:28:36.327Z,9.99
2023-05-14T03:29:36.309Z,10.15
2023-05-14T03:30:36.418Z,10.15
2023-05-14T03:31:36.303Z,10.14
2023-05-14T03:32:36.317Z,10.06
2023-05-14T03:33:36.256Z,10.17
2023-05-14T03:34:36.259Z,10.15
2023-05-14T03:35:36.237Z,10.07
2023-05-14T03:36:36.321Z,10.15
2023-05-14T03:37:36.231Z,10.19
2023-05-14T03:38:36.205Z,10.26
2023-05-14T03:39:36.217Z,10.32
2023-05-14T03:40:36.218Z,10.25
2023-05-14T03:41:36.283Z,10.25
2023-05-14T03:42:36.210Z,10.33
2023-05-14T03:43:36.172Z,10.30
2023-05-14T03:44:36.148Z,10.34
2023-05-14T03:45:36.166Z,10.26
2023-05-14T03:46:36.131Z,10.25
2023-05-14T03:48:08.270Z,10.36
2023-05-14T03:48:36.114Z,10.34
2023-05-14T03:49:36.105Z,10.39
2023-05-14T03:50:36.145Z,10.39
2023-05-14T03:51:36.087Z,10.30
2023-05-14T03:52:36.077Z,10.42
2023-05-14T03:53:36.065Z,10.44
2023-05-14T03:54:36.085Z,10.43
2023-05-14T03:55:36.059Z,10.51
2023-05-14T03:56:36.030Z,10.44
2023-05-14T03:57:36.029Z,10.32
2023-05-14T03:58:36.010Z,10.39
2023-05-14T03:59:36.034Z,10.44
2023-05-14T04:00:35.991Z,10.47
2023-05-14T04:01:35.976Z,10.55
2023-05-14T04:02:36.103Z,10.66
2023-05-14T04:03:36.318Z,10.62
2023-05-14T04:04:36.061Z,10.63
2023-05-14T04:05:35.942Z,10.74
2023-05-14T04:06:35.935Z,10.73
2023-05-14T04:07:35.928Z,10.76
2023-05-14T04:08:35.974Z,10.80
2023-05-14T04:09:35.921Z,10.73
2023-05-14T04:10:36.014Z,10.78
2023-05-14T04:11:35.884Z,10.78
2023-05-14T04:12:35.883Z,10.78
2023-05-14T04:13:35.866Z,10.89
2023-05-14T04:14:35.851Z,10.89
2023-05-14T04:15:35.908Z,10.83
2023-05-14T04:16:35.876Z,10.91
2023-05-14T04:17:35.869Z,10.84
2023-05-14T04:18:35.914Z,10.88
2023-05-14T04:19:35.835Z,10.78
2023-05-14T04:20:35.794Z,10.98
2023-05-14T04:21:35.789Z,10.99
2023-05-14T04:22:35.815Z,10.96
2023-05-14T04:23:35.776Z,10.99
2023-05-14T04:24:35.770Z,10.98
2023-05-14T04:25:35.753Z,11.02
2023-05-14T04:26:35.750Z,10.99
2023-05-14T04:27:35.750Z,11.06
2023-05-14T04:28:35.720Z,11.01
2023-05-14T04:29:35.714Z,11.09
2023-05-14T04:30:35.696Z,11.10
2023-05-14T04:31:35.704Z,11.11
2023-05-14T04:32:35.745Z,11.17
2023-05-14T04:33:35.667Z,11.14
2023-05-14T04:34:35.669Z,11.14
2023-05-14T04:35:35.675Z,11.02
2023-05-14T04:36:35.658Z,11.09
2023-05-14T04:37:35.667Z,11.10
2023-05-14T04:38:35.623Z,11.07
2023-05-14T04:39:35.616Z,11.14
2023-05-14T04:40:35.592Z,11.17
2023-05-14T04:41:35.620Z,11.19
2023-05-14T04:42:35.625Z,11.24
2023-05-14T04:43:35.582Z,11.06
2023-05-14T04:44:35.561Z,11.19
2023-05-14T04:45:35.621Z,11.09
2023-05-14T04:46:35.616Z,11.14
2023-05-14T04:47:35.564Z,11.21
2023-05-14T04:48:35.542Z,11.16
2023-05-14T04:49:35.521Z,11.20
2023-05-14T04:50:35.544Z,11.27
2023-05-14T04:51:35.515Z,11.17
2023-05-14T04:52:35.500Z,11.27
2023-05-14T04:53:35.486Z,11.32
2023-05-14T04:54:35.514Z,11.32
2023-05-14T04:55:35.477Z,11.38
2023-05-14T04:56:35.443Z,11.38
2023-05-14T04:57:35.443Z,11.43
2023-05-14T04:58:35.458Z,11.38
2023-05-14T04:59:35.415Z,11.32
2023-05-14T05:00:35.414Z,11.43
2023-05-14T05:01:35.419Z,11.44
2023-05-14T05:02:35.420Z,11.47
2023-05-14T05:03:35.461Z,11.56
2023-05-14T05:04:35.374Z,11.57
2023-05-14T05:05:35.370Z,11.61
2023-05-14T05:06:35.359Z,11.67
2023-05-14T05:07:35.340Z,11.68
2023-05-14T05:08:35.323Z,11.72
2023-05-14T05:09:35.357Z,11.65
2023-05-14T05:10:35.311Z,11.68
2023-05-14T05:11:35.307Z,11.64
2023-05-14T05:12:35.292Z,11.72
2023-05-14T05:13:35.288Z,11.78
2023-05-14T05:14:35.296Z,11.78
2023-05-14T05:15:35.420Z,11.78
2023-05-14T05:16:35.287Z,11.77
2023-05-14T05:17:35.274Z,11.78
2023-05-14T05:18:35.309Z,11.78
2023-05-14T05:19:43.187Z,11.75
2023-05-14T05:20:37.211Z,11.77
2023-05-14T05:21:35.201Z,11.85
2023-05-14T05:22:35.179Z,11.90
2023-05-14T05:23:35.210Z,11.85
2023-05-14T05:24:35.177Z,11.93
2023-05-14T05:25:35.158Z,11.86
2023-05-14T05:26:35.151Z,11.96
2023-05-14T05:27:35.136Z,11.97
2023-05-14T05:28:35.137Z,12.02
2023-05-14T05:29:35.127Z,12.02
2023-05-14T05:30:35.115Z,12.06
2023-05-14T05:31:35.142Z,12.12
2023-05-14T05:32:35.112Z,12.15
2023-05-14T05:33:35.112Z,12.05
2023-05-14T05:34:35.077Z,12.13
2023-05-14T05:35:35.057Z,12.11
2023-05-14T05:36:36.042Z,12.16
2023-05-14T05:37:35.085Z,12.16
2023-05-14T05:38:35.037Z,12.16
2023-05-14T05:39:35.328Z,12.27
2023-05-14T05:40:35.016Z,12.30
2023-05-14T05:41:35.009Z,12.30
2023-05-14T05:42:34.995Z,12.31
2023-05-14T05:43:34.976Z,12.38
2023-05-14T05:44:34.956Z,12.29
2023-05-14T05:45:34.947Z,12.34
2023-05-14T05:46:34.987Z,12.38
2023-05-14T05:47:35.016Z,12.29
2023-05-14T05:48:34.918Z,12.39
2023-05-14T05:49:34.925Z,12.39
2023-05-14T05:50:34.903Z,12.44
2023-05-14T05:51:34.928Z,12.39
2023-05-14T05:52:34.879Z,12.51
2023-05-14T05:53:34.870Z,12.46
2023-05-14T05:54:34.877Z,12.51
2023-05-14T05:55:34.852Z,12.57
2023-05-14T05:56:34.917Z,12.56
2023-05-14T05:57:34.847Z,12.60
2023-05-14T05:58:34.833Z,12.51
2023-05-14T05:59:34.837Z,12.62
2023-05-14T06:00:34.818Z,12.60
2023-05-14T06:01:34.812Z,12.66
2023-05-14T06:02:34.951Z,12.66
2023-05-14T06:03:34.788Z,12.74
2023-05-14T06:04:34.786Z,12.74
2023-05-14T06:05:34.861Z,12.78
2023-05-14T06:06:34.760Z,12.81
2023-05-14T06:07:34.768Z,12.82
2023-05-14T06:08:34.729Z,12.88
2023-05-14T06:09:34.742Z,12.78
2023-05-14T06:10:34.746Z,12.78
2023-05-14T06:11:34.694Z,12.85
2023-05-14T06:12:34.706Z,12.71
2023-05-14T06:13:34.678Z,12.79
2023-05-14T06:14:34.684Z,12.79
2023-05-14T06:15:34.684Z,12.69
2023-05-14T06:16:34.791Z,12.66
2023-05-14T06:17:34.648Z,12.77
2023-05-14T06:18:34.658Z,12.78
2023-05-14T06:19:34.642Z,12.82
2023-05-14T06:20:34.623Z,12.84
2023-05-14T06:21:34.612Z,12.85
2023-05-14T06:22:34.594Z,12.93
2023-05-14T06:23:34.576Z,12.97
2023-05-14T06:24:34.595Z,12.95
2023-05-14T06:25:34.556Z,12.95
2023-05-14T06:26:34.543Z,12.96
2023-05-14T06:27:34.538Z,13.04
2023-05-14T06:28:34.539Z,12.93
2023-05-14T06:29:34.542Z,13.04
2023-05-14T06:30:34.506Z,13.11
2023-05-14T06:31:34.526Z,13.14
2023-05-14T06:32:34.503Z,13.21
2023-05-14T06:33:34.500Z,13.21
2023-05-14T06:34:34.466Z,13.21
2023-05-14T06:35:34.463Z,13.37
2023-05-14T06:36:34.443Z,13.22
2023-05-14T06:37:34.436Z,13.25
2023-05-14T06:38:34.456Z,13.33
2023-05-14T06:39:34.417Z,13.46
2023-05-14T06:40:34.413Z,13.40
2023-05-14T06:41:34.415Z,13.54
2023-05-14T06:42:34.408Z,13.44
2023-05-14T06:43:34.428Z,13.29
2023-05-14T06:44:34.377Z,13.29
2023-05-14T06:45:34.379Z,13.29
2023-05-14T06:46:34.351Z,13.30
2023-05-14T06:47:34.384Z,13.33
2023-05-14T06:48:34.383Z,13.29
2023-05-14T06:49:34.320Z,13.18
2023-05-14T06:50:34.314Z,13.09
2023-05-14T06:51:34.306Z,13.14
2023-05-14T06:52:34.304Z,13.14
2023-05-14T06:53:34.279Z,13.20
2023-05-14T06:54:34.275Z,13.29
2023-05-14T06:55:34.257Z,13.25
2023-05-14T06:56:34.271Z,13.30
2023-05-14T06:57:34.284Z,13.27
2023-05-14T06:58:34.234Z,13.32
2023-05-14T06:59:34.220Z,13.29
2023-05-14T07:00:34.223Z,13.51
2023-05-14T07:01:34.269Z,13.30
2023-05-14T07:02:34.276Z,13.29
2023-05-14T07:03:34.173Z,13.36
2023-05-14T07:04:34.183Z,13.38
2023-05-14T07:05:34.196Z,13.40
2023-05-14T07:06:34.179Z,13.29
2023-05-14T07:07:34.138Z,13.43
2023-05-14T07:08:34.131Z,13.43
2023-05-14T07:09:34.127Z,13.44
2023-05-14T07:10:34.146Z,13.65
2023-05-14T07:11:34.111Z,13.73
2023-05-14T07:12:34.096Z,13.84
2023-05-14T07:13:34.080Z,13.80
2023-05-14T07:14:34.071Z,13.84
2023-05-14T07:15:34.073Z,13.79
2023-05-14T07:16:34.126Z,13.81
2023-05-14T07:17:34.093Z,13.94
2023-05-14T07:18:35.040Z,13.92
2023-05-14T07:19:34.029Z,13.91
2023-05-14T07:20:34.041Z,13.87
2023-05-14T07:21:34.007Z,13.84
2023-05-14T07:22:33.987Z,13.84
2023-05-14T07:23:34.989Z,13.92
2023-05-14T07:24:33.995Z,14.13
2023-05-14T07:25:33.980Z,14.35
2023-05-14T07:26:33.965Z,14.44
2023-05-14T07:27:33.951Z,14.47
2023-05-14T07:28:33.944Z,14.65
2023-05-14T07:29:33.940Z,14.72
2023-05-14T07:30:33.917Z,14.78
2023-05-14T07:31:33.981Z,14.80
2023-05-14T07:32:33.917Z,14.83
2023-05-14T07:33:33.887Z,14.75
2023-05-14T07:34:33.921Z,14.71
2023-05-14T07:35:33.875Z,14.80
2023-05-14T07:36:33.852Z,14.81
2023-05-14T07:37:33.856Z,14.69
2023-05-14T07:38:33.858Z,14.65
2023-05-14T07:39:33.838Z,14.54
2023-05-14T07:40:33.840Z,14.64
2023-05-14T07:41:33.835Z,14.74
2023-05-14T07:42:37.091Z,14.74
2023-05-14T07:43:34.839Z,14.90
2023-05-14T07:44:33.793Z,14.80
2023-05-14T07:45:33.769Z,14.75
2023-05-14T07:46:33.788Z,15.01
2023-05-14T07:47:33.826Z,15.09
2023-05-14T07:48:33.796Z,15.23
2023-05-14T07:49:33.730Z,15.17
2023-05-14T07:50:33.718Z,15.12
2023-05-14T07:51:33.715Z,15.31
2023-05-14T07:52:33.718Z,15.45
2023-05-14T07:53:33.692Z,15.57
2023-05-14T07:54:33.748Z,15.63
2023-05-14T07:55:33.678Z,15.85
2023-05-14T07:56:33.711Z,15.68
2023-05-14T07:57:33.679Z,15.59
2023-05-14T07:58:33.635Z,15.56
2023-05-14T07:59:33.654Z,15.51
2023-05-14T08:00:33.625Z,15.54
2023-05-14T08:01:33.612Z,15.46
2023-05-14T08:02:33.661Z,15.38
2023-05-14T08:03:33.671Z,15.38
2023-05-14T08:04:33.730Z,15.31
2023-05-14T08:05:33.584Z,15.45
2023-05-14T08:06:33.611Z,15.56
2023-05-14T08:07:33.547Z,15.60
2023-05-14T08:08:33.549Z,15.51
2023-05-14T08:09:33.536Z,15.63
2023-05-14T08:10:33.556Z,15.84
2023-05-14T08:11:33.544Z,16.00
2023-05-14T08:12:33.503Z,16.00
2023-05-14T08:13:33.496Z,15.97
2023-05-14T08:14:33.496Z,16.11
2023-05-14T08:15:33.472Z,16.27
2023-05-14T08:16:33.494Z,16.23
2023-05-14T08:17:33.481Z,16.25
2023-05-14T08:18:33.462Z,16.22
2023-05-14T08:19:33.445Z,16.14
2023-05-14T08:20:33.482Z,16.18
2023-05-14T08:21:33.422Z,16.34
2023-05-14T08:22:33.403Z,16.34
2023-05-14T08:23:33.522Z,16.26
2023-05-14T08:24:33.391Z,16.15
2023-05-14T08:25:33.396Z,16.06
2023-05-14T08:26:33.384Z,15.84
2023-05-14T08:28:05.257Z,15.88
2023-05-14T08:28:33.388Z,15.86
2023-05-14T08:29:33.340Z,15.88
2023-05-14T08:30:33.410Z,15.99
2023-05-14T08:31:33.364Z,16.12
2023-05-14T08:32:33.350Z,16.15
2023-05-14T08:33:33.396Z,16.15
2023-05-14T08:34:33.327Z,16.12
2023-05-14T08:35:33.323Z,16.14
2023-05-14T08:36:33.281Z,16.26
2023-05-14T08:37:33.250Z,16.44
2023-05-14T08:38:33.258Z,16.56
2023-05-14T08:39:33.259Z,16.71
2023-05-14T08:40:33.233Z,16.71
2023-05-14T08:41:33.218Z,16.78
2023-05-14T08:42:33.232Z,16.96
2023-05-14T08:43:33.212Z,16.90
2023-05-14T08:44:33.234Z,16.86
2023-05-14T08:45:33.181Z,16.89
2023-05-14T08:46:33.176Z,16.92
2023-05-14T08:47:33.206Z,17.07
2023-05-14T08:48:33.305Z,17.32
2023-05-14T08:49:33.189Z,17.55
2023-05-14T08:50:33.140Z,17.92
2023-05-14T08:51:33.117Z,18.00
2023-05-14T08:52:33.114Z,17.88
2023-05-14T08:53:33.122Z,17.71
2023-05-14T08:54:33.093Z,17.51
2023-05-14T08:55:33.087Z,17.67
2023-05-14T08:56:33.078Z,17.78
2023-05-14T08:57:33.059Z,17.94
2023-05-14T08:58:33.936Z,18.13
2023-05-14T08:59:33.042Z,18.29
2023-05-14T09:00:33.031Z,18.33
2023-05-14T09:01:33.050Z,18.29
2023-05-14T09:02:33.040Z,18.21
2023-05-14T09:03:33.085Z,18.28
2023-05-14T09:04:32.997Z,18.44
2023-05-14T09:05:32.969Z,18.50
2023-05-14T09:06:32.959Z,18.54
2023-05-14T09:07:32.967Z,18.50
2023-05-14T09:08:32.989Z,18.55
2023-05-14T09:09:32.974Z,18.64
2023-05-14T09:10:32.926Z,18.70
2023-05-14T09:11:32.933Z,18.91
2023-05-14T09:12:32.923Z,18.72
2023-05-14T09:13:32.900Z,18.57
2023-05-14T09:14:32.896Z,18.55
2023-05-14T09:15:32.905Z,18.72
2023-05-14T09:16:32.948Z,18.68
2023-05-14T09:17:32.890Z,18.72
2023-05-14T09:18:32.871Z,18.79
2023-05-14T09:19:32.867Z,18.95
2023-05-14T09:20:32.855Z,19.06
2023-05-14T09:21:33.502Z,18.97
2023-05-14T09:22:33.846Z,19.18
2023-05-14T09:23:32.803Z,18.94
2023-05-14T09:24:32.794Z,18.83
2023-05-14T09:25:32.783Z,18.74
2023-05-14T09:26:32.797Z,18.77
2023-05-14T09:27:32.764Z,18.67
2023-05-14T09:28:32.754Z,18.87
2023-05-14T09:29:32.756Z,19.05
2023-05-14T09:30:32.760Z,19.28
2023-05-14T09:31:32.778Z,19.20
2023-05-14T09:32:32.750Z,19.15
2023-05-14T09:33:32.692Z,19.10
2023-05-14T09:34:32.697Z,19.06
2023-05-14T09:35:32.721Z,18.82
2023-05-14T09:36:32.669Z,18.86
2023-05-14T09:37:32.688Z,19.15
2023-05-14T09:38:32.657Z,19.47
2023-05-14T09:39:32.691Z,19.63
2023-05-14T09:40:32.661Z,19.83
2023-05-14T09:41:32.625Z,19.43
2023-05-14T09:42:32.620Z,18.95
2023-05-14T09:43:32.608Z,19.11
2023-05-14T09:44:32.627Z,19.33
2023-05-14T09:45:32.597Z,19.42
2023-05-14T09:46:32.578Z,19.78
2023-05-14T09:47:32.723Z,19.90
2023-05-14T09:48:32.588Z,19.87
2023-05-14T09:49:32.560Z,19.57
2023-05-14T09:50:32.535Z,19.20
2023-05-14T09:51:32.523Z,18.84
2023-05-14T09:52:32.540Z,18.73
2023-05-14T09:53:32.515Z,18.50
2023-05-14T09:54:32.517Z,18.58
2023-05-14T09:55:32.502Z,18.49
2023-05-14T09:56:32.495Z,18.00
2023-05-14T09:57:32.517Z,18.13
2023-05-14T09:59:06.887Z,18.18
2023-05-14T09:59:32.458Z,18.44
2023-05-14T10:00:32.453Z,18.43
2023-05-14T10:01:32.473Z,18.49
2023-05-14T10:02:32.462Z,18.70
2023-05-14T10:03:32.448Z,18.84
2023-05-14T10:04:32.571Z,18.97
2023-05-14T10:05:32.397Z,19.06
2023-05-14T10:06:32.392Z,19.21
2023-05-14T10:07:32.384Z,19.46
2023-05-14T10:08:32.422Z,19.53
2023-05-14T10:09:32.361Z,19.72
2023-05-14T10:10:32.355Z,19.93
2023-05-14T10:11:32.341Z,19.93
2023-05-14T10:12:32.331Z,19.91
2023-05-14T10:13:32.345Z,19.91
2023-05-14T10:14:32.313Z,19.97
2023-05-14T10:15:32.308Z,19.98
2023-05-14T10:16:32.301Z,19.95
2023-05-14T10:17:32.332Z,19.73
2023-05-14T10:18:32.339Z,19.72
2023-05-14T10:19:32.255Z,19.46
2023-05-14T10:20:32.256Z,19.17
2023-05-14T10:21:32.253Z,19.14
2023-05-14T10:22:32.254Z,18.86
2023-05-14T10:23:32.258Z,18.80
2023-05-14T10:24:32.270Z,18.72
2023-05-14T10:25:32.210Z,18.82
2023-05-14T10:26:32.264Z,18.90
2023-05-14T10:27:32.216Z,19.25
2023-05-14T10:28:32.175Z,19.42
2023-05-14T10:29:32.170Z,19.66
2023-05-14T10:30:32.167Z,19.94
2023-05-14T10:31:32.215Z,20.13
2023-05-14T10:32:32.173Z,20.24
2023-05-14T10:33:32.124Z,20.27
2023-05-14T10:34:32.145Z,20.24
2023-05-14T10:35:32.105Z,20.41
2023-05-14T10:36:32.125Z,20.53
2023-05-14T10:37:32.145Z,20.42
2023-05-14T10:38:32.083Z,20.38
2023-05-14T10:39:32.070Z,20.43
2023-05-14T10:40:32.087Z,20.54
2023-05-14T10:41:32.056Z,20.09
2023-05-14T10:42:32.032Z,19.84
2023-05-14T10:43:32.029Z,19.87
2023-05-14T10:44:32.044Z,20.00
2023-05-14T10:45:32.036Z,20.16
2023-05-14T10:46:32.012Z,20.28
2023-05-14T10:47:32.017Z,20.42
2023-05-14T10:48:31.983Z,20.47
2023-05-14T10:49:43.017Z,20.72
2023-05-14T10:50:34.052Z,20.86
2023-05-14T10:51:31.982Z,20.89
2023-05-14T10:52:31.936Z,21.11
2023-05-14T10:53:31.930Z,21.19
2023-05-14T10:54:31.975Z,21.35
2023-05-14T10:55:31.954Z,21.51
2023-05-14T10:56:31.898Z,21.45
2023-05-14T10:57:31.909Z,21.71
2023-05-14T10:58:31.887Z,21.83
2023-05-14T10:59:31.884Z,21.60
2023-05-14T11:00:31.844Z,21.66
2023-05-14T11:01:32.900Z,21.71
2023-05-14T11:02:31.859Z,21.85
2023-05-14T11:03:31.878Z,21.99
2023-05-14T11:04:31.864Z,22.13
2023-05-14T11:05:31.803Z,22.09
2023-05-14T11:06:31.801Z,22.01
2023-05-14T11:07:31.812Z,22.02
2023-05-14T11:08:31.804Z,21.97
2023-05-14T11:09:31.797Z,21.59
2023-05-14T11:10:31.773Z,21.48
2023-05-14T11:11:31.758Z,21.09
2023-05-14T11:12:31.745Z,21.14
2023-05-14T11:13:31.740Z,21.23
2023-05-14T11:14:32.737Z,21.20
2023-05-14T11:15:31.711Z,21.08
2023-05-14T11:16:31.732Z,21.23
2023-05-14T11:17:31.733Z,21.13
2023-05-14T11:18:31.723Z,21.13
2023-05-14T11:19:31.678Z,21.29
2023-05-14T11:20:31.680Z,21.32
2023-05-14T11:21:31.820Z,21.36
2023-05-14T11:22:31.675Z,20.98
2023-05-14T11:23:31.651Z,20.64
2023-05-14T11:24:31.623Z,20.54
2023-05-14T11:25:31.971Z,20.61
2023-05-14T11:26:31.690Z,20.71
2023-05-14T11:27:31.620Z,20.79
2023-05-14T11:28:31.585Z,20.84
2023-05-14T11:29:31.598Z,20.89
2023-05-14T11:30:31.576Z,20.96
2023-05-14T11:31:31.682Z,20.71
2023-05-14T11:32:31.561Z,20.54
2023-05-14T11:33:31.544Z,20.46
2023-05-14T11:34:31.539Z,20.49
2023-05-14T11:35:31.505Z,20.27
2023-05-14T11:36:31.506Z,20.25
2023-05-14T11:37:31.497Z,20.23
2023-05-14T11:38:31.500Z,20.30
2023-05-14T11:39:31.474Z,20.21
2023-05-14T11:40:31.460Z,20.25
2023-05-14T11:41:31.464Z,20.46
2023-05-14T11:42:31.441Z,20.71
2023-05-14T11:43:31.435Z,20.83
2023-05-14T11:44:31.427Z,21.05
2023-05-14T11:45:31.410Z,21.23
2023-05-14T11:46:31.503Z,21.51
2023-05-14T11:47:31.415Z,21.83
2023-05-14T11:48:31.384Z,21.83
2023-05-14T11:49:31.388Z,21.63
2023-05-14T11:50:31.386Z,21.51
2023-05-14T11:51:31.354Z,21.30
2023-05-14T11:52:31.366Z,21.42
2023-05-14T11:53:31.369Z,21.44
2023-05-14T11:54:31.349Z,21.38
2023-05-14T11:55:31.313Z,20.90
2023-05-14T11:56:31.310Z,20.65
2023-05-14T11:57:31.308Z,20.61
2023-05-14T11:58:31.280Z,20.50
2023-05-14T11:59:31.274Z,20.76
2023-05-14T12:00:31.285Z,21.08
2023-05-14T12:01:31.266Z,21.51
2023-05-14T12:02:31.306Z,21.90
2023-05-14T12:03:31.356Z,22.07
2023-05-14T12:04:31.286Z,22.17
2023-05-14T12:05:31.234Z,22.43
2023-05-14T12:06:31.205Z,22.49
2023-05-14T12:07:31.229Z,22.57
2023-05-14T12:08:31.182Z,22.71
2023-05-14T12:09:31.172Z,22.92
2023-05-14T12:10:31.162Z,22.94
2023-05-14T12:11:31.155Z,22.86
2023-05-14T12:12:31.167Z,22.56
2023-05-14T12:13:31.169Z,22.41
2023-05-14T12:14:31.143Z,22.14
2023-05-14T12:15:31.122Z,22.16
2023-05-14T12:16:31.244Z,21.90
2023-05-14T12:17:31.119Z,21.54
2023-05-14T12:18:31.308Z,21.35
2023-05-14T12:19:31.153Z,21.45
2023-05-14T12:20:31.062Z,21.46
2023-05-14T12:21:31.049Z,21.53
2023-05-14T12:22:31.053Z,21.61
2023-05-14T12:23:31.063Z,21.71
2023-05-14T12:24:31.026Z,21.91
2023-05-14T12:25:31.014Z,22.04
2023-05-14T12:26:31.025Z,22.07
2023-05-14T12:27:31.068Z,21.78
2023-05-14T12:28:31.022Z,21.35
2023-05-14T12:29:30.973Z,21.34
2023-05-14T12:30:30.966Z,21.14
2023-05-14T12:31:31.001Z,20.96
2023-05-14T12:32:31.012Z,20.65
2023-05-14T12:33:30.972Z,20.59
2023-05-14T12:34:30.937Z,20.46
2023-05-14T12:35:30.910Z,20.20
2023-05-14T12:36:30.926Z,20.13
2023-05-14T12:37:31.322Z,19.93
2023-05-14T12:38:31.893Z,19.94
2023-05-14T12:39:30.880Z,20.00
2023-05-14T12:40:30.873Z,19.98
2023-05-14T12:41:30.867Z,20.02
2023-05-14T12:42:30.873Z,20.10
2023-05-14T12:43:30.838Z,20.03
2023-05-14T12:44:30.826Z,19.95
2023-05-14T12:45:30.860Z,19.97
2023-05-14T12:46:30.916Z,20.13
2023-05-14T12:47:30.853Z,20.09
2023-05-14T12:48:30.790Z,19.91
2023-05-14T12:49:30.813Z,19.97
2023-05-14T12:50:30.778Z,19.79
2023-05-14T12:51:30.770Z,19.90
2023-05-14T12:53:31.760Z,19.97
2023-05-14T12:54:30.739Z,19.69
2023-05-14T12:55:30.723Z,19.87